Vendome Street — A8YI6 — position and weather

sailwx.info

Track history (hours):
 
Tides and Currents Weather Stations Pressure Air Temp Water Temp Dewpoint Dewpoint Depression Visibility Wind Speed Wind Dir Waves Ship Positions

Vendome Street

Last reported at 2015-May-19 16:33 UTC. Time now 2015-May-22 19:12 UTC.
Position N 57°50' E 010°27'.

Length 177 m; draft 11.4 m.

Type: Tanker. MMSI: 636015064.

Date/timePositionNaut miles runAvg speedWind from/ knotsBaromVisibWave heightAir tempDewpointWater temp
2015-May-19 16:33N 57°50' E 010°27'1312.5
2015-May-19 15:33N 57°46' E 010°50'1111.2
2015-May-19 14:33N 57°39' E 011°05'1413.6
2015-May-19 13:33N 57°29' E 011°23'1313.0
2015-May-19 12:33N 57°17' E 011°32'1312.9
2015-May-19 11:33N 57°05' E 011°41'1312.8
2015-May-19 10:33N 56°53' E 011°48'1111.4
2015-May-19 09:33N 56°41' E 011°49'1312.8
2015-May-19 08:33N 56°30' E 011°37'11611.6
2015-May-18 22:33N 54°36' E 010°60'1312.8
2015-May-18 21:33N 54°33' E 011°21'1313.3
2015-May-18 20:33N 54°28' E 011°42'1312.9
2015-May-18 19:33N 54°26' E 012°04'1110.7
2015-May-18 18:33N 54°35' E 012°16'4312.8
2015-May-18 15:13N 54°55' E 013°21'913.0
2015-May-18 14:33N 54°58' E 013°36'1312.9
2015-May-18 13:33N 55°02' E 013°57'1312.8
2015-May-18 12:33N 55°08' E 014°17'1312.7
2015-May-18 11:33N 55°15' E 014°35'1010.3
2015-May-18 10:33N 55°19' E 014°51'9 9.4
2015-May-18 09:33N 55°23' E 015°07'1313.0
2015-May-18 08:33N 55°30' E 015°25'1312.9
2015-May-18 07:33N 55°38' E 015°44'30911.9
2015-May-17 05:33N 59°24' E 022°15'1313.3
2015-May-17 04:33N 59°31' E 022°37'2013.5
2015-May-17 03:04N 59°37' E 023°15'713.3
2015-May-17 02:33N 59°39' E 023°28'1313.5
2015-May-17 01:33N 59°43' E 023°53'1313.3
2015-May-17 00:33N 59°46' E 024°19'1313.3
2015-May-16 23:33N 59°49' E 024°44'1913.1
2015-May-16 22:07N 59°53' E 025°21'3513.0
2015-May-16 19:25N 60°01' E 026°29'1112.9
2015-May-16 18:33N 60°00' E 026°52'  
2015-May-14 05:28N 60°02' E 027°15'1213.3
2015-May-14 04:33N 59°59' E 026°51'1413.8
2015-May-14 03:33N 59°57' E 026°24'4314.0
2015-May-14 00:28N 59°47' E 025°00'1213.6
2015-May-13 23:34N 59°45' E 024°36'1413.9
2015-May-13 22:32N 59°41' E 024°09'1413.8
2015-May-13 21:33N 59°36' E 023°44'1413.7
2015-May-13 20:33N 59°32' E 023°18'1413.9
2015-May-13 19:33N 59°28' E 022°52'32713.3
2015-May-12 19:04N 55°38' E 015°39'1014.2
2015-May-12 18:21N 55°36' E 015°22'1114.1
2015-May-12 17:33N 55°32' E 015°03'1514.4
2015-May-12 16:33N 55°25' E 014°41'1413.9
2015-May-12 15:34N 55°14' E 014°26'1413.9
2015-May-12 14:33N 55°03' E 014°11'1413.6
2015-May-12 13:33N 54°57' E 013°50'1414.2
2015-May-12 12:33N 54°53' E 013°26'1413.9
2015-May-12 11:33N 54°49' E 013°04'1413.7
2015-May-12 10:33N 54°44' E 012°41'1413.8
2015-May-12 09:33N 54°36' E 012°22'1313.3
2015-May-12 08:34N 54°25' E 012°09'1413.7
2015-May-12 07:33N 54°25' E 011°46'1413.6
2015-May-12 06:33N 54°31' E 011°25'1312.7
2015-May-12 05:33N 54°35' E 011°04'1413.7
2015-May-12 04:34N 54°34' E 010°40'1313.1
2015-May-12 03:33N 54°30' E 010°19'10 9.7
2015-May-12 02:33N 54°22' E 010°09'1 1.3
2015-May-12 01:33N 54°22' E 010°07'6 5.6
2015-May-12 00:33N 54°21' E 009°58'6 6.4
2015-May-11 23:34N 54°22' E 009°47'7 6.6
2015-May-11 22:34N 54°17' E 009°39'7 6.7
2015-May-11 21:34N 54°12' E 009°32'7 6.3
2015-May-11 20:25N 54°09' E 009°21'5 5.5
2015-May-11 19:33N 54°04' E 009°19'6 5.8
2015-May-11 18:34N 53°59' E 009°16'6 6.3
2015-May-11 17:33N 53°54' E 009°09'1 0.8
2015-May-11 16:34N 53°53' E 009°08'1 0.8
2015-May-11 15:31N 53°53' E 009°07'0 0.0
2015-May-11 14:32N 53°53' E 009°07'0 0.1
2015-May-11 13:31N 53°53' E 009°07'0 0.2
2015-May-11 12:32N 53°53' E 009°06'0 0.3
2015-May-11 11:33N 53°53' E 009°06'5 5.0
2015-May-11 10:33N 53°51' E 008°58'8 8.1
2015-May-11 09:33N 53°52' E 008°44'8 8.1
2015-May-11 08:33N 53°58' E 008°35'1010.2
2015-May-11 07:33N 53°60' E 008°18'10 9.6
2015-May-11 06:33N 53°59' E 008°02'1313.0
2015-May-11 05:33N 53°57' E 007°40'1413.9
2015-May-11 04:33N 53°54' E 007°17'1414.0
2015-May-11 03:33N 53°50' E 006°54'1514.3
2015-May-11 02:32N 53°46' E 006°30'1414.4
2015-May-11 01:33N 53°42' E 006°08'1514.8
2015-May-11 00:33N 53°37' E 005°44'1514.9
2015-May-10 23:33N 53°33' E 005°20'1514.8
2015-May-10 22:33N 53°28' E 004°56'1414.5
2015-May-10 21:33N 53°19' E 004°38'1815.6
2015-May-10 20:23N 53°03' E 004°23'1315.5
2015-May-10 19:33N 52°52' E 004°14'1514.8
2015-May-10 18:33N 52°41' E 003°57'1515.2
2015-May-10 17:33N 52°28' E 003°42'1514.8
2015-May-10 16:33N 52°15' E 003°31'1514.0
2015-May-10 15:31N 52°02' E 003°23'1212.9
2015-May-10 14:33N 51°49' E 003°20'10 9.2
2015-May-10 13:32N 51°41' E 003°13'1010.6
2015-May-10 12:33N 51°32' E 003°05'8 7.6
2015-May-10 11:33N 51°24' E 003°04'1413.8
2015-May-10 10:33N 51°25' E 003°26'1010.3
2015-May-10 09:34N 51°24' E 003°43'1010.1
2015-May-10 08:33N 51°26' E 003°59'9 9.0
2015-May-10 07:34N 51°24' E 004°12'9 8.5
2015-May-10 06:33N 51°17' E 004°20'0 0.2
2015-May-10 05:33N 51°17' E 004°20'1 0.8
2015-May-10 04:33N 51°17' E 004°20'  
Track history (hours):
 
Tides and Currents Weather Stations Pressure Air Temp Water Temp Dewpoint Dewpoint Depression Visibility Wind Speed Wind Dir Waves Ship Positions

Vendome Street

Last reported at 2015-May-19 16:33 UTC. Time now 2015-May-22 19:12 UTC.
Position N 57°50' E 010°27'.

Length 177 m; draft 11.4 m.

Type: Tanker. MMSI: 636015064.

Date/timePositionNaut miles runAvg speedWind from/ knotsBaromVisibWave heightAir tempDewpointWater temp
2015-May-19 16:33N 57°50' E 010°27'1312.5
2015-May-19 15:33N 57°46' E 010°50'1111.2
2015-May-19 14:33N 57°39' E 011°05'1413.6
2015-May-19 13:33N 57°29' E 011°23'1313.0
2015-May-19 12:33N 57°17' E 011°32'1312.9
2015-May-19 11:33N 57°05' E 011°41'1312.8
2015-May-19 10:33N 56°53' E 011°48'1111.4
2015-May-19 09:33N 56°41' E 011°49'1312.8
2015-May-19 08:33N 56°30' E 011°37'11611.6
2015-May-18 22:33N 54°36' E 010°60'1312.8
2015-May-18 21:33N 54°33' E 011°21'1313.3
2015-May-18 20:33N 54°28' E 011°42'1312.9
2015-May-18 19:33N 54°26' E 012°04'1110.7
2015-May-18 18:33N 54°35' E 012°16'4312.8
2015-May-18 15:13N 54°55' E 013°21'913.0
2015-May-18 14:33N 54°58' E 013°36'1312.9
2015-May-18 13:33N 55°02' E 013°57'1312.8
2015-May-18 12:33N 55°08' E 014°17'1312.7
2015-May-18 11:33N 55°15' E 014°35'1010.3
2015-May-18 10:33N 55°19' E 014°51'9 9.4
2015-May-18 09:33N 55°23' E 015°07'1313.0
2015-May-18 08:33N 55°30' E 015°25'1312.9
2015-May-18 07:33N 55°38' E 015°44'30911.9
2015-May-17 05:33N 59°24' E 022°15'1313.3
2015-May-17 04:33N 59°31' E 022°37'2013.5
2015-May-17 03:04N 59°37' E 023°15'713.3
2015-May-17 02:33N 59°39' E 023°28'1313.5
2015-May-17 01:33N 59°43' E 023°53'1313.3
2015-May-17 00:33N 59°46' E 024°19'1313.3
2015-May-16 23:33N 59°49' E 024°44'1913.1
2015-May-16 22:07N 59°53' E 025°21'3513.0
2015-May-16 19:25N 60°01' E 026°29'1112.9
2015-May-16 18:33N 60°00' E 026°52'  
2015-May-14 05:28N 60°02' E 027°15'1213.3
2015-May-14 04:33N 59°59' E 026°51'1413.8
2015-May-14 03:33N 59°57' E 026°24'4314.0
2015-May-14 00:28N 59°47' E 025°00'1213.6
2015-May-13 23:34N 59°45' E 024°36'1413.9
2015-May-13 22:32N 59°41' E 024°09'1413.8
2015-May-13 21:33N 59°36' E 023°44'1413.7
2015-May-13 20:33N 59°32' E 023°18'1413.9
2015-May-13 19:33N 59°28' E 022°52'32713.3
2015-May-12 19:04N 55°38' E 015°39'1014.2
2015-May-12 18:21N 55°36' E 015°22'1114.1
2015-May-12 17:33N 55°32' E 015°03'1514.4
2015-May-12 16:33N 55°25' E 014°41'1413.9
2015-May-12 15:34N 55°14' E 014°26'1413.9
2015-May-12 14:33N 55°03' E 014°11'1413.6
2015-May-12 13:33N 54°57' E 013°50'1414.2
2015-May-12 12:33N 54°53' E 013°26'1413.9
2015-May-12 11:33N 54°49' E 013°04'1413.7
2015-May-12 10:33N 54°44' E 012°41'1413.8
2015-May-12 09:33N 54°36' E 012°22'1313.3
2015-May-12 08:34N 54°25' E 012°09'1413.7
2015-May-12 07:33N 54°25' E 011°46'1413.6
2015-May-12 06:33N 54°31' E 011°25'1312.7
2015-May-12 05:33N 54°35' E 011°04'1413.7
2015-May-12 04:34N 54°34' E 010°40'1313.1
2015-May-12 03:33N 54°30' E 010°19'10 9.7
2015-May-12 02:33N 54°22' E 010°09'1 1.3
2015-May-12 01:33N 54°22' E 010°07'6 5.6
2015-May-12 00:33N 54°21' E 009°58'6 6.4
2015-May-11 23:34N 54°22' E 009°47'7 6.6
2015-May-11 22:34N 54°17' E 009°39'7 6.7
2015-May-11 21:34N 54°12' E 009°32'7 6.3
2015-May-11 20:25N 54°09' E 009°21'5 5.5
2015-May-11 19:33N 54°04' E 009°19'6 5.8
2015-May-11 18:34N 53°59' E 009°16'6 6.3
2015-May-11 17:33N 53°54' E 009°09'1 0.8
2015-May-11 16:34N 53°53' E 009°08'1 0.8
2015-May-11 15:31N 53°53' E 009°07'0 0.0
2015-May-11 14:32N 53°53' E 009°07'0 0.1
2015-May-11 13:31N 53°53' E 009°07'0 0.2
2015-May-11 12:32N 53°53' E 009°06'0 0.3
2015-May-11 11:33N 53°53' E 009°06'5 5.0
2015-May-11 10:33N 53°51' E 008°58'8 8.1
2015-May-11 09:33N 53°52' E 008°44'8 8.1
2015-May-11 08:33N 53°58' E 008°35'1010.2
2015-May-11 07:33N 53°60' E 008°18'10 9.6
2015-May-11 06:33N 53°59' E 008°02'1313.0
2015-May-11 05:33N 53°57' E 007°40'1413.9
2015-May-11 04:33N 53°54' E 007°17'1414.0
2015-May-11 03:33N 53°50' E 006°54'1514.3
2015-May-11 02:32N 53°46' E 006°30'1414.4
2015-May-11 01:33N 53°42' E 006°08'1514.8
2015-May-11 00:33N 53°37' E 005°44'1514.9
2015-May-10 23:33N 53°33' E 005°20'1514.8
2015-May-10 22:33N 53°28' E 004°56'1414.5
2015-May-10 21:33N 53°19' E 004°38'1815.6
2015-May-10 20:23N 53°03' E 004°23'1315.5
2015-May-10 19:33N 52°52' E 004°14'1514.8
2015-May-10 18:33N 52°41' E 003°57'1515.2
2015-May-10 17:33N 52°28' E 003°42'1514.8
2015-May-10 16:33N 52°15' E 003°31'1514.0
2015-May-10 15:31N 52°02' E 003°23'1212.9
2015-May-10 14:33N 51°49' E 003°20'10 9.2
2015-May-10 13:32N 51°41' E 003°13'1010.6
2015-May-10 12:33N 51°32' E 003°05'8 7.6
2015-May-10 11:33N 51°24' E 003°04'1413.8
2015-May-10 10:33N 51°25' E 003°26'1010.3
2015-May-10 09:34N 51°24' E 003°43'1010.1
2015-May-10 08:33N 51°26' E 003°59'9 9.0
2015-May-10 07:34N 51°24' E 004°12'9 8.5
2015-May-10 06:33N 51°17' E 004°20'0 0.2
2015-May-10 05:33N 51°17' E 004°20'1 0.8
2015-May-10 04:33N 51°17' E 004°20'  

Dump ship's entire track history